Time;durP1;ratioP1;P1;durP2;ratioP2;P2;SDS_P1;SDS_P2;PMS_P1;PMS_P2;Temp;Humidity;BMP_temperature;BMP_pressure;BME280_temperature;BME280_humidity;BME280_pressure;Samples;Min_cycle;Max_cycle;Signal;HPM_P1;HPM_P2
2022/11/30 00:01:22;;;;;;;102.03;55.50;;;0.90;99.90;;;;;;5028452;28;20252;-82
2022/11/30 00:03:54;;;;;;;98.43;59.80;;;0.90;99.90;;;;;;5015941;28;20295;-84
2022/11/30 00:06:23;;;;;;;90.50;54.35;;;0.80;99.90;;;;;;5022293;28;20213;-85
2022/11/30 00:08:57;;;;;;;95.45;56.70;;;1.30;99.90;;;;;;5031390;28;20505;-85
2022/11/30 00:11:27;;;;;;;85.15;52.30;;;0.70;99.90;;;;;;5025900;28;20213;-83
2022/11/30 00:13:55;;;;;;;110.60;56.03;;;0.90;99.90;;;;;;5031156;28;20287;-85
2022/11/30 00:16:22;;;;;;;85.05;51.65;;;0.80;99.90;;;;;;5029287;28;20225;-86
2022/11/30 00:18:50;;;;;;;96.82;55.28;;;0.70;99.90;;;;;;5045085;28;20258;-88
2022/11/30 00:21:17;;;;;;;94.07;56.38;;;0.80;99.90;;;;;;5031018;28;20208;-89
2022/11/30 00:23:46;;;;;;;97.95;56.65;;;0.70;99.90;;;;;;5026062;28;20232;-85
2022/11/30 00:26:16;;;;;;;97.88;53.95;;;0.70;99.90;;;;;;5032807;28;20520;-87
2022/11/30 00:28:45;;;;;;;97.78;52.28;;;1.10;99.90;;;;;;5024086;28;20198;-85
2022/11/30 00:31:14;;;;;;;100.45;61.08;;;0.70;99.90;;;;;;5023324;28;20201;-86
2022/11/30 00:33:42;;;;;;;101.35;59.80;;;0.60;99.90;;;;;;5043664;28;20200;-86
2022/11/30 00:36:14;;;;;;;111.60;59.75;;;0.60;99.90;;;;;;5024236;28;20221;-84
2022/11/30 00:38:42;;;;;;;107.60;60.00;;;0.60;99.90;;;;;;5022305;28;20216;-85
2022/11/30 00:41:09;;;;;;;95.53;57.20;;;0.60;99.90;;;;;;5016869;28;20502;-88
2022/11/30 00:43:36;;;;;;;90.25;58.13;;;0.60;99.90;;;;;;5050576;28;20459;-85
2022/11/30 00:46:04;;;;;;;105.70;55.92;;;0.60;99.90;;;;;;5029064;28;20444;-86
2022/11/30 00:48:31;;;;;;;94.53;55.63;;;0.60;99.90;;;;;;5033851;28;20205;-86
2022/11/30 00:50:58;;;;;;;100.05;58.08;;;0.60;99.90;;;;;;5039699;28;20404;-83
2022/11/30 00:53:25;;;;;;;93.90;60.05;;;0.60;99.90;;;;;;5027115;28;20221;-86
2022/11/30 00:55:53;;;;;;;109.07;61.08;;;0.50;99.90;;;;;;5026356;28;20205;-90
2022/11/30 00:58:20;;;;;;;98.55;60.30;;;1.40;99.90;;;;;;5029606;28;20205;-85
2022/11/30 01:00:47;;;;;;;108.88;61.53;;;0.50;99.90;;;;;;5024738;28;20564;-85
2022/11/30 01:03:14;;;;;;;102.40;58.42;;;0.50;99.90;;;;;;5024390;28;20615;-86
2022/11/30 01:05:42;;;;;;;107.57;59.03;;;0.50;99.90;;;;;;5028006;28;20220;-90
2022/11/30 01:08:10;;;;;;;94.15;56.13;;;0.60;99.90;;;;;;5034987;28;20290;-86
2022/11/30 01:10:39;;;;;;;108.72;61.75;;;1.20;99.90;;;;;;5040340;28;20243;-85
2022/11/30 01:13:07;;;;;;;100.43;58.08;;;1.40;99.90;;;;;;5032959;28;20209;-88
2022/11/30 01:15:39;;;;;;;108.45;58.90;;;1.10;99.90;;;;;;5028244;28;20202;-89
2022/11/30 01:18:06;;;;;;;111.82;63.80;;;0.40;99.90;;;;;;5030456;28;20197;-89
2022/11/30 01:20:33;;;;;;;102.22;62.58;;;0.30;99.90;;;;;;5031159;28;20511;-88
2022/11/30 01:23:00;;;;;;;115.57;65.72;;;0.80;99.90;;;;;;5021646;28;20234;-83
2022/11/30 01:25:27;;;;;;;103.72;61.15;;;0.30;99.90;;;;;;5038461;28;20201;-84
2022/11/30 01:27:55;;;;;;;102.57;64.50;;;0.30;99.90;;;;;;5044063;28;20285;-93
2022/11/30 01:30:22;;;;;;;107.15;64.85;;;0.30;99.90;;;;;;5051039;28;20197;-85
2022/11/30 01:32:49;;;;;;;105.80;65.68;;;0.20;99.90;;;;;;5025281;28;20256;-91
2022/11/30 01:35:16;;;;;;;111.82;67.80;;;1.50;99.90;;;;;;5026013;28;20203;-85
2022/11/30 01:37:43;;;;;;;105.53;62.83;;;0.30;99.90;;;;;;5024955;28;20220;-84
2022/11/30 01:40:11;;;;;;;95.05;62.38;;;0.30;99.90;;;;;;5027206;28;20213;-85
2022/11/30 01:42:44;;;;;;;105.35;62.05;;;0.20;99.90;;;;;;5020887;28;20230;-89
2022/11/30 01:45:14;;;;;;;115.97;67.53;;;0.20;99.90;;;;;;5035597;28;20449;-88
2022/11/30 01:47:47;;;;;;;101.85;65.53;;;0.20;99.90;;;;;;5027012;28;20198;-88
2022/11/30 01:50:18;;;;;;;115.00;64.50;;;0.20;99.90;;;;;;5024773;28;20209;-84
2022/11/30 01:52:53;;;;;;;130.20;69.97;;;0.10;99.90;;;;;;5027448;28;20222;-85
2022/11/30 01:55:28;;;;;;;114.07;66.68;;;0.10;99.90;;;;;;5025776;28;20221;-86
2022/11/30 01:58:07;;;;;;;117.53;63.45;;;0.10;99.90;;;;;;5025873;28;20205;-92
2022/11/30 02:00:34;;;;;;;112.40;69.97;;;0.10;99.90;;;;;;5028006;28;20524;-88
2022/11/30 02:05:42;;;;;;;112.57;69.82;;;0.10;99.90;;;;;;4963279;28;20233;-88
2022/11/30 02:08:09;;;;;;;116.10;69.07;;;0.10;99.90;;;;;;4972367;28;20200;-90
2022/11/30 02:10:41;;;;;;;107.00;68.65;;;0.10;99.90;;;;;;4962137;28;20216;-83
2022/11/30 02:13:17;;;;;;;120.03;74.22;;;0.10;99.90;;;;;;4946460;29;20251;-87
2022/11/30 02:16:03;;;;;;;126.60;76.90;;;0.10;99.90;;;;;;4931857;29;20248;-88
2022/11/30 02:19:10;;;;;;;145.57;82.80;;;0.10;99.90;;;;;;4943899;29;20212;-84
2022/11/30 02:21:51;;;;;;;142.60;79.78;;;0.20;99.90;;;;;;4952816;28;20224;-88
2022/11/30 02:24:30;;;;;;;138.88;77.53;;;0.20;99.90;;;;;;4950737;29;20316;-89
2022/11/30 02:27:17;;;;;;;130.60;73.22;;;0.20;99.90;;;;;;4933507;29;20314;-88
2022/11/30 02:30:14;;;;;;;145.98;80.97;;;0.10;99.90;;;;;;4960989;29;20256;-86
2022/11/30 02:33:01;;;;;;;124.10;73.45;;;0.80;99.90;;;;;;4948906;29;20212;-89
2022/11/30 02:35:34;;;;;;;133.02;73.05;;;0.00;99.90;;;;;;4950984;28;20208;-91
2022/11/30 02:38:03;;;;;;;156.35;83.97;;;1.10;99.90;;;;;;4948476;29;20212;-87
2022/11/30 02:40:31;;;;;;;144.43;77.50;;;0.00;99.90;;;;;;4957944;29;20380;-87
2022/11/30 02:43:01;;;;;;;151.43;85.03;;;0.00;99.90;;;;;;4961690;28;20413;-83
2022/11/30 02:45:45;;;;;;;186.50;86.20;;;0.00;99.90;;;;;;4944203;29;20433;-85
2022/11/30 02:48:16;;;;;;;146.43;71.18;;;-0.10;99.90;;;;;;4960842;29;20208;-91
2022/11/30 02:50:49;;;;;;;145.70;79.68;;;0.00;99.90;;;;;;4938092;29;20208;-85
2022/11/30 02:53:16;;;;;;;157.48;85.20;;;1.00;99.90;;;;;;4961859;28;20498;-84
2022/11/30 02:55:43;;;;;;;155.77;80.65;;;0.20;99.90;;;;;;5111515;23;20305;-83
2022/11/30 02:58:11;;;;;;;169.05;83.38;;;0.10;99.90;;;;;;5044206;28;20230;-87
2022/11/30 03:00:41;;;;;;;142.15;71.60;;;0.80;99.90;;;;;;5047727;28;20205;-87
2022/11/30 03:03:09;;;;;;;169.85;78.97;;;0.00;99.90;;;;;;5040518;28;20273;-90
2022/11/30 03:05:37;;;;;;;181.27;80.93;;;0.00;99.90;;;;;;5059058;28;20476;-88
2022/11/30 03:08:04;;;;;;;177.48;79.63;;;0.00;99.90;;;;;;5033895;28;20212;-85
2022/11/30 03:10:31;;;;;;;169.52;86.45;;;-0.10;99.90;;;;;;5035846;28;20193;-84
2022/11/30 03:12:58;;;;;;;180.73;81.28;;;-0.10;99.90;;;;;;5039068;28;20236;-83
2022/11/30 03:15:26;;;;;;;156.38;80.25;;;0.00;99.90;;;;;;5045415;28;20232;-84
2022/11/30 03:17:54;;;;;;;142.20;69.32;;;0.10;99.90;;;;;;5041191;28;20426;-82
2022/11/30 03:20:21;;;;;;;154.95;73.97;;;0.10;99.90;;;;;;5039283;28;20210;-89
2022/11/30 03:22:48;;;;;;;140.38;65.65;;;0.10;99.90;;;;;;5035932;28;20366;-85
2022/11/30 03:25:15;;;;;;;146.73;69.03;;;0.50;99.90;;;;;;5049641;28;20184;-84
2022/11/30 03:27:42;;;;;;;152.60;66.80;;;0.20;99.90;;;;;;5041341;28;20236;-86
2022/11/30 03:30:09;;;;;;;145.70;65.60;;;0.00;99.90;;;;;;5044502;28;20224;-88
2022/11/30 03:32:36;;;;;;;157.63;70.70;;;0.00;99.90;;;;;;5047183;28;20571;-90
2022/11/30 03:35:04;;;;;;;163.65;70.90;;;0.00;99.90;;;;;;5046957;28;20209;-86
2022/11/30 03:37:31;;;;;;;156.32;71.97;;;0.00;99.90;;;;;;5067734;28;21361;-84
2022/11/30 03:39:58;;;;;;;166.88;72.72;;;-0.10;99.90;;;;;;5050072;28;20271;-85
2022/11/30 03:42:25;;;;;;;144.77;69.30;;;-0.10;99.90;;;;;;5026500;28;20200;-89
2022/11/30 03:44:52;;;;;;;161.52;68.95;;;-0.10;99.90;;;;;;5047598;28;20214;-86
2022/11/30 03:47:19;;;;;;;183.00;73.78;;;-0.10;99.90;;;;;;5058279;28;20228;-87
2022/11/30 03:49:46;;;;;;;240.40;85.03;;;-0.10;99.90;;;;;;5041455;28;20178;-89
2022/11/30 03:52:13;;;;;;;201.57;85.72;;;0.70;99.90;;;;;;5041846;28;20196;-89
2022/11/30 03:54:41;;;;;;;199.13;71.40;;;-0.20;99.90;;;;;;5029153;28;20197;-87
2022/11/30 03:57:08;;;;;;;213.32;83.78;;;-0.10;99.90;;;;;;5286007;23;20354;-86
2022/11/30 03:59:35;;;;;;;219.43;90.03;;;-0.20;99.90;;;;;;4994131;28;20189;-89
2022/11/30 04:02:02;;;;;;;221.20;87.63;;;-0.20;99.90;;;;;;5009184;28;20256;-90
2022/11/30 04:04:30;;;;;;;204.70;86.10;;;-0.10;99.90;;;;;;5120915;23;20320;-88
2022/11/30 04:06:57;;;;;;;236.43;82.75;;;0.10;99.90;;;;;;5011699;28;20229;-87
2022/11/30 04:09:24;;;;;;;205.27;88.70;;;-0.60;99.90;;;;;;5010853;28;20260;-83
2022/11/30 04:11:51;;;;;;;214.00;81.97;;;-0.10;99.90;;;;;;5102349;23;20527;-89
2022/11/30 04:14:20;;;;;;;239.90;81.88;;;0.40;99.90;;;;;;4962343;28;20198;-88
2022/11/30 04:16:47;;;;;;;236.82;89.15;;;-0.10;99.90;;;;;;4977343;28;20587;-81
2022/11/30 04:19:14;;;;;;;204.32;86.03;;;0.20;99.90;;;;;;5131321;23;20225;-89
2022/11/30 04:21:41;;;;;;;196.75;75.53;;;0.10;99.90;;;;;;4995245;28;20191;-82
2022/11/30 04:24:08;;;;;;;214.77;80.85;;;0.10;99.90;;;;;;5000035;28;20219;-87
2022/11/30 04:26:36;;;;;;;193.50;77.82;;;0.20;99.90;;;;;;5076415;23;20220;-82
2022/11/30 04:29:04;;;;;;;188.23;70.38;;;0.20;99.90;;;;;;5036202;28;20216;-88
2022/11/30 04:31:31;;;;;;;188.27;67.35;;;0.20;99.90;;;;;;5042988;28;20198;-89
2022/11/30 04:33:58;;;;;;;152.05;67.88;;;0.20;99.90;;;;;;5028451;28;20194;-89
2022/11/30 04:36:26;;;;;;;164.68;66.32;;;0.30;99.90;;;;;;5024900;28;20205;-83
2022/11/30 04:38:52;;;;;;;175.23;74.82;;;0.20;99.90;;;;;;5041237;28;20432;-85
2022/11/30 04:41:20;;;;;;;201.63;73.30;;;0.40;99.90;;;;;;5023906;28;20210;-86
2022/11/30 04:43:47;;;;;;;183.05;63.17;;;0.30;99.90;;;;;;5014660;28;20241;-84
2022/11/30 04:46:14;;;;;;;191.20;71.22;;;0.30;99.90;;;;;;5036343;28;20502;-82
2022/11/30 04:48:41;;;;;;;176.60;70.38;;;0.40;99.90;;;;;;5020457;28;20198;-86
2022/11/30 04:51:08;;;;;;;179.48;68.13;;;1.60;99.90;;;;;;5013291;28;20540;-85
2022/11/30 04:53:36;;;;;;;178.32;68.60;;;1.30;99.90;;;;;;5019019;28;20201;-87
2022/11/30 04:56:08;;;;;;;179.60;69.05;;;0.50;99.90;;;;;;5037841;28;20218;-86
2022/11/30 04:58:37;;;;;;;186.77;66.00;;;0.40;99.90;;;;;;5018961;28;20206;-84
2022/11/30 05:01:05;;;;;;;179.38;66.75;;;1.70;99.90;;;;;;5028709;28;20205;-85
2022/11/30 05:03:32;;;;;;;194.52;75.07;;;0.40;99.90;;;;;;5038055;28;20233;-82
2022/11/30 05:06:00;;;;;;;205.98;70.35;;;0.40;99.90;;;;;;5014696;28;20205;-82
2022/11/30 05:08:27;;;;;;;206.18;70.70;;;0.50;99.90;;;;;;5033213;28;21011;-87
2022/11/30 05:10:54;;;;;;;176.00;65.63;;;0.40;99.90;;;;;;5041236;28;20186;-87
2022/11/30 05:13:22;;;;;;;192.45;72.95;;;0.30;99.90;;;;;;5034161;28;20190;-87
2022/11/30 05:15:49;;;;;;;209.93;67.35;;;0.30;99.90;;;;;;5018250;28;20285;-85
2022/11/30 05:18:16;;;;;;;155.05;60.30;;;0.30;99.90;;;;;;5034890;28;20185;-88
2022/11/30 05:20:52;;;;;;;178.00;61.65;;;0.30;99.90;;;;;;5046708;28;20209;-83
2022/11/30 05:23:20;;;;;;;174.82;61.55;;;1.20;99.90;;;;;;5041030;28;20201;-86
2022/11/30 05:25:49;;;;;;;187.73;66.25;;;0.30;99.90;;;;;;5016492;28;20390;-85
2022/11/30 05:28:16;;;;;;;173.43;68.03;;;0.20;99.90;;;;;;5029370;28;20220;-88
2022/11/30 05:30:43;;;;;;;168.40;58.63;;;0.20;99.90;;;;;;5028057;28;20389;-85
2022/11/30 05:33:10;;;;;;;175.73;62.47;;;0.20;99.90;;;;;;5022652;28;20218;-85
2022/11/30 05:35:37;;;;;;;192.23;65.90;;;0.20;99.90;;;;;;5033518;28;20201;-88
2022/11/30 05:38:05;;;;;;;177.93;60.03;;;0.10;99.90;;;;;;5013609;28;20248;-88
2022/11/30 05:40:32;;;;;;;165.23;60.08;;;1.50;99.90;;;;;;5027099;28;20240;-81
2022/11/30 05:43:01;;;;;;;178.60;62.47;;;0.20;99.90;;;;;;5009873;28;20201;-81
2022/11/30 05:45:29;;;;;;;200.70;69.32;;;0.20;99.90;;;;;;4992159;28;20222;-81
2022/11/30 05:47:57;;;;;;;183.05;55.72;;;0.30;99.90;;;;;;5030785;28;20263;-86
2022/11/30 05:50:24;;;;;;;172.88;61.22;;;0.30;99.90;;;;;;5013386;28;20217;-83
2022/11/30 05:52:55;;;;;;;183.90;66.85;;;0.30;99.90;;;;;;5022409;28;20216;-85
2022/11/30 05:55:25;;;;;;;173.25;60.50;;;0.30;99.90;;;;;;5025685;28;20212;-89
2022/11/30 05:57:53;;;;;;;194.73;68.05;;;0.30;99.90;;;;;;5026621;28;20198;-86
2022/11/30 06:00:20;;;;;;;180.77;67.03;;;-0.20;99.90;;;;;;5006282;28;20252;-88
2022/11/30 06:02:47;;;;;;;179.80;66.28;;;0.20;99.90;;;;;;5029972;28;20209;-91
2022/11/30 06:05:14;;;;;;;204.10;66.30;;;1.30;99.90;;;;;;5022556;28;20236;-85
2022/11/30 06:07:42;;;;;;;184.32;64.45;;;0.20;99.90;;;;;;5014333;28;20224;-84
2022/11/30 06:10:12;;;;;;;207.07;77.45;;;0.90;99.90;;;;;;5012148;28;20201;-85
2022/11/30 06:12:39;;;;;;;207.00;72.13;;;0.40;99.90;;;;;;5030499;28;20654;-86
2022/11/30 06:15:07;;;;;;;187.80;71.80;;;0.30;99.90;;;;;;5024467;28;20206;-84
2022/11/30 06:17:37;;;;;;;211.40;71.40;;;0.30;99.90;;;;;;5022705;28;20269;-86
2022/11/30 06:20:06;;;;;;;190.07;65.20;;;0.30;99.90;;;;;;5028234;28;20235;-84
2022/11/30 06:22:33;;;;;;;201.13;66.18;;;0.20;99.90;;;;;;5018695;28;20190;-86
2022/11/30 06:25:02;;;;;;;205.95;72.60;;;0.20;99.90;;;;;;5031133;28;20221;-89
2022/11/30 06:27:31;;;;;;;205.02;67.53;;;0.20;99.90;;;;;;5015712;28;20216;-88
2022/11/30 06:29:58;;;;;;;216.70;79.13;;;0.80;99.90;;;;;;5030444;28;20205;-88
2022/11/30 06:32:25;;;;;;;189.43;65.13;;;0.20;99.90;;;;;;5016643;28;20197;-88
2022/11/30 06:34:53;;;;;;;227.32;73.85;;;1.20;99.90;;;;;;5010872;28;20246;-88
2022/11/30 06:37:21;;;;;;;199.52;62.92;;;1.70;99.90;;;;;;5022890;28;20258;-86
2022/11/30 06:39:48;;;;;;;201.90;70.07;;;0.30;99.90;;;;;;5007871;28;20194;-87
2022/11/30 06:42:33;;;;;;;213.27;66.20;;;0.20;99.90;;;;;;5026441;28;20387;-87
2022/11/30 06:45:01;;;;;;;192.80;69.60;;;1.20;99.90;;;;;;4997551;28;20218;-88
2022/11/30 06:47:28;;;;;;;209.27;67.38;;;0.40;99.90;;;;;;5012217;28;20193;-90
2022/11/30 06:49:55;;;;;;;190.63;70.75;;;1.10;99.90;;;;;;5016629;28;20210;-89
2022/11/30 06:52:25;;;;;;;175.80;58.55;;;0.50;99.90;;;;;;4989647;28;20197;-85
2022/11/30 06:54:52;;;;;;;188.00;61.60;;;0.50;99.90;;;;;;5025899;28;20428;-83
2022/11/30 06:57:20;;;;;;;154.63;57.33;;;0.60;99.90;;;;;;5005544;28;20205;-82
2022/11/30 06:59:46;;;;;;;159.20;57.33;;;0.70;99.90;;;;;;5013080;28;20276;-84
2022/11/30 07:02:15;;;;;;;152.63;57.17;;;0.80;99.90;;;;;;5012519;28;20194;-84
2022/11/30 07:04:44;;;;;;;129.73;51.80;;;0.90;99.90;;;;;;5019110;28;20224;-85
2022/11/30 07:07:12;;;;;;;153.48;53.92;;;0.70;99.90;;;;;;5026899;28;20248;-90
2022/11/30 07:09:38;;;;;;;126.85;53.47;;;0.60;99.90;;;;;;5019354;28;20248;-88
2022/11/30 07:12:07;;;;;;;124.35;47.42;;;0.60;99.90;;;;;;5015026;28;20199;-82
2022/11/30 07:14:34;;;;;;;144.68;51.10;;;-0.10;99.90;;;;;;5023249;28;20202;-89
2022/11/30 07:17:03;;;;;;;127.07;52.80;;;0.50;99.90;;;;;;5137100;23;20226;-89
2022/11/30 07:19:34;;;;;;;122.72;51.42;;;0.60;99.90;;;;;;5026151;28;20232;-81
2022/11/30 07:22:03;;;;;;;140.23;51.42;;;0.50;99.90;;;;;;4993689;28;20198;-84
2022/11/30 07:27:16;;;;;;;159.77;54.67;;;0.50;99.90;;;;;;5024498;28;20213;-87
2022/11/30 07:29:43;;;;;;;136.30;50.33;;;0.70;99.90;;;;;;5010520;28;20426;-82
2022/11/30 07:32:10;;;;;;;150.68;54.55;;;1.40;99.90;;;;;;5027803;28;20216;-84
2022/11/30 07:34:37;;;;;;;163.00;53.67;;;2.00;99.90;;;;;;5009156;28;20193;-87
2022/11/30 07:37:04;;;;;;;148.57;53.50;;;1.60;99.90;;;;;;5008729;28;20261;-89
2022/11/30 07:39:31;;;;;;;124.25;54.42;;;1.70;99.90;;;;;;5005377;28;20528;-90
2022/11/30 07:41:58;;;;;;;130.73;52.03;;;2.00;99.90;;;;;;4997227;28;20270;-85
2022/11/30 07:44:26;;;;;;;137.57;54.05;;;1.30;99.90;;;;;;5008636;28;20229;-84
2022/11/30 07:46:53;;;;;;;142.98;59.13;;;2.10;99.90;;;;;;5203295;23;20544;-88
2022/11/30 07:49:20;;;;;;;194.82;72.65;;;0.60;99.90;;;;;;5060429;23;20257;-85
2022/11/30 07:51:47;;;;;;;393.77;144.85;;;0.80;99.90;;;;;;5016982;28;20202;-89
2022/11/30 07:54:14;;;;;;;169.73;66.18;;;0.90;99.90;;;;;;4999367;28;20510;-86
2022/11/30 07:56:41;;;;;;;268.85;101.75;;;0.90;99.90;;;;;;5018477;28;20190;-84
2022/11/30 07:59:09;;;;;;;280.58;113.18;;;0.80;99.90;;;;;;5029929;28;20195;-88
2022/11/30 08:01:36;;;;;;;181.68;72.18;;;1.60;99.90;;;;;;4991662;28;20198;-84
2022/11/30 08:04:04;;;;;;;304.52;120.32;;;1.10;99.90;;;;;;4995978;28;20225;-86
2022/11/30 08:06:31;;;;;;;185.52;77.13;;;1.90;99.90;;;;;;4985784;28;20236;-83
2022/11/30 08:09:00;;;;;;;201.15;81.20;;;1.10;99.90;;;;;;5004901;28;20305;-86
2022/11/30 08:11:32;;;;;;;151.15;56.05;;;1.20;99.90;;;;;;5004388;28;20277;-90
2022/11/30 08:14:01;;;;;;;168.20;68.32;;;1.10;99.90;;;;;;4987827;28;20213;-84
2022/11/30 08:16:29;;;;;;;125.40;50.75;;;1.80;99.90;;;;;;5004356;28;20515;-86
2022/11/30 08:18:59;;;;;;;98.20;50.78;;;1.40;99.90;;;;;;5007931;28;20197;-87
2022/11/30 08:21:26;;;;;;;130.10;50.90;;;1.30;99.90;;;;;;5003430;28;20267;-86
2022/11/30 08:23:56;;;;;;;105.18;46.80;;;2.10;99.90;;;;;;4985956;28;20223;-83
2022/11/30 08:26:29;;;;;;;119.00;53.50;;;0.90;99.90;;;;;;4998764;28;20206;-83
2022/11/30 08:28:59;;;;;;;149.48;60.70;;;0.90;99.90;;;;;;4994930;28;20626;-85
2022/11/30 08:31:28;;;;;;;96.40;48.10;;;2.10;99.90;;;;;;5018632;28;20185;-85
2022/11/30 08:33:57;;;;;;;113.93;45.42;;;0.90;99.90;;;;;;5002645;28;20190;-86
2022/11/30 08:36:26;;;;;;;92.80;40.60;;;1.70;99.90;;;;;;5008721;28;20207;-86
2022/11/30 08:38:56;;;;;;;109.05;47.05;;;0.80;99.90;;;;;;4987601;28;20230;-86
2022/11/30 08:41:24;;;;;;;96.35;43.42;;;0.70;99.90;;;;;;5008278;28;20225;-84
2022/11/30 08:43:52;;;;;;;98.45;45.22;;;0.80;99.90;;;;;;5141444;23;20392;-88
2022/11/30 08:46:21;;;;;;;89.53;41.70;;;1.00;99.90;;;;;;5030175;23;20223;-88
2022/11/30 08:49:08;;;;;;;122.45;56.03;;;0.90;99.90;;;;;;4977459;28;20280;-87
2022/11/30 08:51:49;;;;;;;94.35;46.92;;;1.00;99.90;;;;;;4958123;28;20287;-87
2022/11/30 08:54:37;;;;;;;109.05;52.85;;;1.00;99.90;;;;;;4958832;28;20222;-83
2022/11/30 08:57:04;;;;;;;110.05;47.08;;;1.90;99.90;;;;;;4987819;28;20203;-89
2022/11/30 08:59:32;;;;;;;113.88;51.33;;;1.70;99.90;;;;;;4991215;28;20191;-84
2022/11/30 09:01:59;;;;;;;119.13;48.53;;;1.20;99.90;;;;;;4989527;28;20202;-83
2022/11/30 09:04:26;;;;;;;104.25;43.45;;;1.40;99.90;;;;;;4974333;28;20228;-87
2022/11/30 09:06:57;;;;;;;96.32;44.50;;;1.50;99.90;;;;;;5069962;23;20242;-85
2022/11/30 09:09:26;;;;;;;95.97;45.15;;;1.40;99.90;;;;;;5002115;28;20198;-85
2022/11/30 09:14:21;;;;;;;103.93;46.58;;;1.50;99.90;;;;;;5001008;28;20214;-87
2022/11/30 09:16:48;;;;;;;110.40;47.45;;;1.40;99.90;;;;;;4991690;28;20205;-89
2022/11/30 09:19:15;;;;;;;111.60;48.65;;;1.30;99.90;;;;;;5009345;28;20216;-82
2022/11/30 09:21:43;;;;;;;97.25;48.38;;;1.30;99.90;;;;;;5008774;28;20455;-85
2022/11/30 09:24:17;;;;;;;95.35;47.60;;;1.30;99.90;;;;;;5008167;28;20182;-82
2022/11/30 09:26:44;;;;;;;79.07;38.28;;;1.30;99.90;;;;;;5008451;28;20202;-83
2022/11/30 09:29:13;;;;;;;85.32;45.10;;;1.30;99.90;;;;;;5009203;28;20514;-83
2022/11/30 09:31:40;;;;;;;90.68;42.50;;;1.20;99.90;;;;;;5013393;28;20218;-86
2022/11/30 09:34:10;;;;;;;87.03;42.30;;;2.50;99.90;;;;;;4992439;28;20198;-84
2022/11/30 09:36:37;;;;;;;102.20;44.70;;;1.30;99.90;;;;;;5003334;28;20240;-87
2022/11/30 09:39:05;;;;;;;109.35;43.95;;;1.50;99.90;;;;;;4998776;28;20265;-83
2022/11/30 09:41:44;;;;;;;101.70;47.60;;;1.40;99.90;;;;;;4991079;28;20195;-87
2022/11/30 09:44:17;;;;;;;76.18;40.35;;;1.50;99.90;;;;;;5004416;28;20245;-85
2022/11/30 09:46:58;;;;;;;86.53;42.83;;;1.50;99.90;;;;;;5001017;28;20213;-86
2022/11/30 09:49:38;;;;;;;99.88;46.55;;;1.30;99.90;;;;;;4999429;28;20236;-82
2022/11/30 09:52:12;;;;;;;92.63;41.90;;;2.10;99.90;;;;;;5003693;28;20197;-81
2022/11/30 09:54:42;;;;;;;88.18;43.30;;;2.40;99.90;;;;;;5009140;28;20222;-84
2022/11/30 09:57:32;;;;;;;97.25;45.53;;;2.40;99.90;;;;;;5002418;28;20269;-82
2022/11/30 10:00:03;;;;;;;89.78;43.80;;;2.20;99.90;;;;;;5006906;28;20194;-84
2022/11/30 10:02:39;;;;;;;92.80;40.40;;;1.60;99.90;;;;;;5015870;28;20198;-84
2022/11/30 10:05:18;;;;;;;88.13;38.22;;;1.50;99.90;;;;;;5016507;28;20225;-83
2022/11/30 10:08:14;;;;;;;83.43;40.78;;;1.50;99.90;;;;;;4991375;28;20203;-80
2022/11/30 10:11:15;;;;;;;86.18;41.17;;;1.40;99.90;;;;;;4986552;28;20266;-82
2022/11/30 10:14:21;;;;;;;92.10;44.67;;;1.20;99.90;;;;;;5019322;28;20214;-81
2022/11/30 10:16:56;;;;;;;97.93;44.65;;;1.20;99.90;;;;;;4991103;28;20459;-83
2022/11/30 10:20:02;;;;;;;105.03;45.38;;;1.30;99.90;;;;;;4998650;28;20199;-83
2022/11/30 10:22:45;;;;;;;98.57;43.25;;;1.30;99.90;;;;;;5005333;28;20202;-85
2022/11/30 10:25:32;;;;;;;91.80;42.08;;;1.20;99.90;;;;;;4989201;28;20231;-84
2022/11/30 10:28:22;;;;;;;85.10;39.78;;;1.10;99.90;;;;;;4989996;28;20282;-86
2022/11/30 10:31:14;;;;;;;97.10;45.10;;;1.10;99.90;;;;;;4980496;28;20263;-82
2022/11/30 10:33:50;;;;;;;102.60;43.00;;;1.20;99.90;;;;;;4994980;28;20199;-85
2022/11/30 10:36:35;;;;;;;97.03;39.30;;;1.20;99.90;;;;;;5010228;28;20202;-81
2022/11/30 10:39:08;;;;;;;78.28;40.60;;;1.10;99.90;;;;;;5011827;28;20379;-81
2022/11/30 10:41:49;;;;;;;83.47;38.50;;;2.20;99.90;;;;;;4998616;28;20207;-80
2022/11/30 10:44:38;;;;;;;81.65;41.00;;;1.20;99.90;;;;;;4994670;28;20209;-82
2022/11/30 10:47:25;;;;;;;76.82;39.22;;;1.30;99.90;;;;;;5015276;28;20226;-84
2022/11/30 10:49:52;;;;;;;80.97;38.65;;;1.30;99.90;;;;;;5009762;28;20206;-80
2022/11/30 10:52:48;;;;;;;89.93;37.85;;;1.30;99.90;;;;;;4987186;28;20217;-83
2022/11/30 10:55:43;;;;;;;76.40;37.50;;;1.20;99.90;;;;;;4983434;28;20209;-87
2022/11/30 10:58:19;;;;;;;87.68;37.65;;;1.10;99.90;;;;;;5000756;28;20520;-87
2022/11/30 11:00:57;;;;;;;81.90;38.60;;;1.10;99.90;;;;;;5009574;28;20198;-83
2022/11/30 11:03:26;;;;;;;91.82;42.38;;;1.30;99.90;;;;;;4998437;28;20198;-85
2022/11/30 11:06:15;;;;;;;89.43;40.75;;;1.00;99.90;;;;;;5004560;28;20230;-82
2022/11/30 11:08:44;;;;;;;97.28;41.58;;;1.00;99.90;;;;;;5012717;28;20364;-80
2022/11/30 11:11:33;;;;;;;83.95;40.72;;;1.90;99.90;;;;;;5020659;28;20227;-88
2022/11/30 11:14:22;;;;;;;79.68;39.17;;;1.20;99.90;;;;;;5002410;28;20204;-89
2022/11/30 11:17:01;;;;;;;83.80;40.17;;;1.40;99.90;;;;;;5000678;28;20195;-87
2022/11/30 11:19:33;;;;;;;72.35;37.00;;;1.40;99.90;;;;;;5007310;28;20198;-83
2022/11/30 11:22:04;;;;;;;76.80;39.95;;;1.30;99.90;;;;;;4995924;28;20495;-81
2022/11/30 11:24:34;;;;;;;93.40;42.20;;;1.40;99.90;;;;;;4989667;28;20214;-87
2022/11/30 11:27:02;;;;;;;81.95;38.65;;;2.60;99.90;;;;;;4998206;28;20205;-83
2022/11/30 11:29:33;;;;;;;75.63;40.05;;;1.40;99.90;;;;;;5002791;28;20216;-82
2022/11/30 11:32:08;;;;;;;93.53;48.88;;;1.20;99.90;;;;;;4991990;28;20205;-83
2022/11/30 11:34:37;;;;;;;84.05;40.15;;;2.60;99.90;;;;;;4983040;28;20198;-85
2022/11/30 11:37:11;;;;;;;76.35;41.55;;;1.30;99.90;;;;;;4986518;28;20215;-82
2022/11/30 11:39:55;;;;;;;85.25;39.78;;;1.10;99.90;;;;;;5006070;28;20205;-85
2022/11/30 11:42:39;;;;;;;87.90;37.97;;;1.10;99.90;;;;;;5007036;28;20262;-85
2022/11/30 11:45:26;;;;;;;88.38;39.90;;;0.90;99.90;;;;;;5009779;28;20213;-87
2022/11/30 11:47:58;;;;;;;94.15;42.55;;;1.10;99.90;;;;;;5015278;28;20231;-86
2022/11/30 11:50:33;;;;;;;81.90;40.40;;;1.00;99.90;;;;;;5003670;28;20206;-85
2022/11/30 11:53:33;;;;;;;84.35;37.67;;;1.70;99.90;;;;;;5012824;28;20230;-85
2022/11/30 11:56:15;;;;;;;81.43;39.00;;;1.30;99.90;;;;;;4991214;28;20202;-83
2022/11/30 11:59:12;;;;;;;83.53;38.85;;;1.50;99.90;;;;;;5004445;28;20237;-85
2022/11/30 12:02:04;;;;;;;81.25;41.08;;;1.30;99.90;;;;;;4999971;28;20186;-82
2022/11/30 12:04:45;;;;;;;84.80;39.55;;;1.50;99.90;;;;;;5020453;28;20194;-83
2022/11/30 12:07:34;;;;;;;97.07;43.17;;;1.80;99.90;;;;;;5005138;28;20209;-84
2022/11/30 12:10:16;;;;;;;78.15;40.58;;;2.00;99.90;;;;;;5005639;28;20191;-83
2022/11/30 12:13:12;;;;;;;103.47;45.08;;;1.90;99.90;;;;;;5001441;28;20249;-82
2022/11/30 12:15:54;;;;;;;91.05;44.03;;;1.90;99.90;;;;;;4993762;28;20245;-81
2022/11/30 12:18:49;;;;;;;68.40;36.50;;;1.80;99.90;;;;;;4986301;28;20207;-85
2022/11/30 12:21:25;;;;;;;60.00;32.25;;;1.70;99.90;;;;;;4944979;29;20230;-83
2022/11/30 12:24:14;;;;;;;80.70;35.40;;;1.50;99.90;;;;;;4988817;28;20378;-85
2022/11/30 12:26:49;;;;;;;72.75;38.20;;;1.40;99.90;;;;;;5002330;28;20293;-85
2022/11/30 12:29:30;;;;;;;63.25;33.80;;;1.30;99.90;;;;;;4984700;28;20230;-83
2022/11/30 12:32:24;;;;;;;72.22;37.10;;;1.20;99.90;;;;;;4993833;28;20205;-83
2022/11/30 12:34:54;;;;;;;67.30;34.13;;;1.20;99.90;;;;;;5003069;28;20202;-80
2022/11/30 12:37:34;;;;;;;71.07;34.88;;;1.10;99.90;;;;;;5010880;28;20269;-84
2022/11/30 12:40:44;;;;;;;63.25;32.05;;;1.00;99.90;;;;;;4991030;28;20209;-82
2022/11/30 12:43:42;;;;;;;61.38;37.30;;;1.00;99.90;;;;;;4990976;28;20206;-82
2022/11/30 12:46:14;;;;;;;64.53;33.30;;;1.10;99.90;;;;;;4990277;28;20238;-82
2022/11/30 12:49:11;;;;;;;58.75;32.53;;;2.20;99.90;;;;;;4988067;28;20210;-82
2022/11/30 12:52:35;;;;;;;65.80;34.20;;;1.20;99.90;;;;;;5009023;28;20187;-86
2022/11/30 12:55:33;;;;;;;53.03;33.58;;;0.10;99.90;;;;;;4968193;28;20202;-89
2022/11/30 12:58:25;;;;;;;61.95;34.65;;;1.20;99.90;;;;;;4970277;28;20373;-82
2022/11/30 13:01:03;;;;;;;46.40;28.75;;;1.20;99.90;;;;;;4980485;28;20287;-82
2022/11/30 13:03:48;;;;;;;53.47;34.10;;;1.30;99.90;;;;;;5000791;28;20211;-81
2022/11/30 13:06:58;;;;;;;61.40;32.38;;;1.30;99.90;;;;;;4992814;28;20532;-84